sensor_id;sensor_type;location;lat;lon;timestamp;P1;durP1;ratioP1;P2;durP2;ratioP2
76477;SDS011;65309;49.790;18.972;2023-11-21T00:03:32;6.65;;;2.70;;
76477;SDS011;65309;49.790;18.972;2023-11-21T00:08:35;2.80;;;1.92;;
76477;SDS011;65309;49.790;18.972;2023-11-21T00:13:37;4.65;;;2.88;;
76477;SDS011;65309;49.790;18.972;2023-11-21T00:18:41;5.80;;;2.80;;
76477;SDS011;65309;49.790;18.972;2023-11-21T00:23:44;5.25;;;2.65;;
76477;SDS011;65309;49.790;18.972;2023-11-21T00:28:46;5.35;;;3.08;;
76477;SDS011;65309;49.790;18.972;2023-11-21T00:33:50;4.00;;;2.10;;
76477;SDS011;65309;49.790;18.972;2023-11-21T00:38:52;5.03;;;2.33;;
76477;SDS011;65309;49.790;18.972;2023-11-21T00:43:54;5.55;;;2.00;;
76477;SDS011;65309;49.790;18.972;2023-11-21T00:48:58;3.50;;;2.03;;
76477;SDS011;65309;49.790;18.972;2023-11-21T00:54:00;4.20;;;2.28;;
76477;SDS011;65309;49.790;18.972;2023-11-21T00:59:03;4.65;;;2.45;;
76477;SDS011;65309;49.790;18.972;2023-11-21T01:04:08;4.13;;;2.30;;
76477;SDS011;65309;49.790;18.972;2023-11-21T01:09:10;3.58;;;1.45;;
76477;SDS011;65309;49.790;18.972;2023-11-21T01:14:12;6.53;;;2.15;;
76477;SDS011;65309;49.790;18.972;2023-11-21T01:19:16;5.63;;;2.60;;
76477;SDS011;65309;49.790;18.972;2023-11-21T01:24:18;5.13;;;2.30;;
76477;SDS011;65309;49.790;18.972;2023-11-21T01:29:21;3.97;;;2.85;;
76477;SDS011;65309;49.790;18.972;2023-11-21T01:34:24;3.70;;;2.28;;
76477;SDS011;65309;49.790;18.972;2023-11-21T01:39:27;3.15;;;1.90;;
76477;SDS011;65309;49.790;18.972;2023-11-21T01:49:33;3.10;;;2.53;;
76477;SDS011;65309;49.790;18.972;2023-11-21T01:54:35;8.98;;;2.85;;
76477;SDS011;65309;49.790;18.972;2023-11-21T02:04:45;2.67;;;1.88;;
76477;SDS011;65309;49.790;18.972;2023-11-21T02:09:47;2.80;;;1.55;;
76477;SDS011;65309;49.790;18.972;2023-11-21T02:14:49;7.10;;;2.75;;
76477;SDS011;65309;49.790;18.972;2023-11-21T02:24:57;7.82;;;2.88;;
76477;SDS011;65309;49.790;18.972;2023-11-21T02:29:59;4.95;;;3.00;;
76477;SDS011;65309;49.790;18.972;2023-11-21T02:35:03;2.90;;;2.25;;
76477;SDS011;65309;49.790;18.972;2023-11-21T02:40:11;2.55;;;1.65;;
76477;SDS011;65309;49.790;18.972;2023-11-21T02:45:14;3.92;;;2.58;;
76477;SDS011;65309;49.790;18.972;2023-11-21T02:50:19;4.60;;;2.78;;
76477;SDS011;65309;49.790;18.972;2023-11-21T02:55:23;2.28;;;2.08;;
76477;SDS011;65309;49.790;18.972;2023-11-21T03:00:26;6.70;;;2.25;;
76477;SDS011;65309;49.790;18.972;2023-11-21T03:05:29;2.80;;;1.92;;
76477;SDS011;65309;49.790;18.972;2023-11-21T03:10:32;2.95;;;2.20;;
76477;SDS011;65309;49.790;18.972;2023-11-21T03:15:35;2.88;;;2.03;;
76477;SDS011;65309;49.790;18.972;2023-11-21T03:20:37;3.35;;;2.00;;
76477;SDS011;65309;49.790;18.972;2023-11-21T03:25:41;2.92;;;2.13;;
76477;SDS011;65309;49.790;18.972;2023-11-21T03:30:44;4.68;;;2.92;;
76477;SDS011;65309;49.790;18.972;2023-11-21T03:35:46;3.20;;;2.20;;
76477;SDS011;65309;49.790;18.972;2023-11-21T03:40:50;3.45;;;2.22;;
76477;SDS011;65309;49.790;18.972;2023-11-21T03:45:52;2.13;;;1.65;;
76477;SDS011;65309;49.790;18.972;2023-11-21T03:50:54;4.78;;;2.47;;
76477;SDS011;65309;49.790;18.972;2023-11-21T03:55:58;3.58;;;2.28;;
76477;SDS011;65309;49.790;18.972;2023-11-21T04:01:00;3.38;;;2.58;;
76477;SDS011;65309;49.790;18.972;2023-11-21T04:06:03;4.45;;;2.25;;
76477;SDS011;65309;49.790;18.972;2023-11-21T04:11:09;4.53;;;2.22;;
76477;SDS011;65309;49.790;18.972;2023-11-21T04:16:13;7.32;;;2.78;;
76477;SDS011;65309;49.790;18.972;2023-11-21T04:21:16;3.20;;;2.60;;
76477;SDS011;65309;49.790;18.972;2023-11-21T04:26:19;3.80;;;2.55;;
76477;SDS011;65309;49.790;18.972;2023-11-21T04:31:21;5.28;;;2.90;;
76477;SDS011;65309;49.790;18.972;2023-11-21T04:36:24;8.57;;;7.32;;
76477;SDS011;65309;49.790;18.972;2023-11-21T04:41:27;7.45;;;5.53;;
76477;SDS011;65309;49.790;18.972;2023-11-21T04:46:29;6.45;;;3.30;;
76477;SDS011;65309;49.790;18.972;2023-11-21T04:51:32;4.82;;;2.88;;
76477;SDS011;65309;49.790;18.972;2023-11-21T04:56:35;10.57;;;5.88;;
76477;SDS011;65309;49.790;18.972;2023-11-21T05:01:37;7.97;;;4.88;;
76477;SDS011;65309;49.790;18.972;2023-11-21T05:11:44;3.65;;;2.05;;
76477;SDS011;65309;49.790;18.972;2023-11-21T05:16:46;6.78;;;4.38;;
76477;SDS011;65309;49.790;18.972;2023-11-21T05:21:48;7.65;;;4.00;;
76477;SDS011;65309;49.790;18.972;2023-11-21T05:26:52;8.35;;;4.18;;
76477;SDS011;65309;49.790;18.972;2023-11-21T05:31:54;8.07;;;4.43;;
76477;SDS011;65309;49.790;18.972;2023-11-21T05:36:57;3.92;;;2.67;;
76477;SDS011;65309;49.790;18.972;2023-11-21T05:42:01;5.82;;;3.72;;
76477;SDS011;65309;49.790;18.972;2023-11-21T05:47:05;4.07;;;2.58;;
76477;SDS011;65309;49.790;18.972;2023-11-21T05:52:09;3.80;;;2.95;;
76477;SDS011;65309;49.790;18.972;2023-11-21T05:57:13;3.80;;;3.25;;
76477;SDS011;65309;49.790;18.972;2023-11-21T06:02:15;3.13;;;2.45;;
76477;SDS011;65309;49.790;18.972;2023-11-21T06:07:17;3.17;;;1.95;;
76477;SDS011;65309;49.790;18.972;2023-11-21T06:12:22;3.47;;;2.45;;
76477;SDS011;65309;49.790;18.972;2023-11-21T06:17:24;7.25;;;3.17;;
76477;SDS011;65309;49.790;18.972;2023-11-21T06:22:29;2.53;;;1.98;;
76477;SDS011;65309;49.790;18.972;2023-11-21T06:27:33;3.65;;;2.58;;
76477;SDS011;65309;49.790;18.972;2023-11-21T06:32:38;9.02;;;3.70;;
76477;SDS011;65309;49.790;18.972;2023-11-21T06:37:41;4.07;;;2.95;;
76477;SDS011;65309;49.790;18.972;2023-11-21T06:42:50;9.07;;;2.50;;
76477;SDS011;65309;49.790;18.972;2023-11-21T06:47:53;5.45;;;3.10;;
76477;SDS011;65309;49.790;18.972;2023-11-21T06:52:55;4.72;;;2.80;;
76477;SDS011;65309;49.790;18.972;2023-11-21T06:57:59;5.55;;;3.50;;
76477;SDS011;65309;49.790;18.972;2023-11-21T07:03:02;5.90;;;3.35;;
76477;SDS011;65309;49.790;18.972;2023-11-21T07:08:04;5.85;;;3.08;;
76477;SDS011;65309;49.790;18.972;2023-11-21T07:13:08;7.88;;;3.85;;
76477;SDS011;65309;49.790;18.972;2023-11-21T07:18:14;4.07;;;2.70;;
76477;SDS011;65309;49.790;18.972;2023-11-21T07:23:16;5.65;;;3.22;;
76477;SDS011;65309;49.790;18.972;2023-11-21T07:28:20;4.80;;;2.60;;
76477;SDS011;65309;49.790;18.972;2023-11-21T07:33:22;3.78;;;2.80;;
76477;SDS011;65309;49.790;18.972;2023-11-21T07:38:24;3.97;;;3.10;;
76477;SDS011;65309;49.790;18.972;2023-11-21T07:43:28;4.43;;;2.75;;
76477;SDS011;65309;49.790;18.972;2023-11-21T07:48:36;7.93;;;2.88;;
76477;SDS011;65309;49.790;18.972;2023-11-21T07:53:38;3.05;;;1.80;;
76477;SDS011;65309;49.790;18.972;2023-11-21T07:58:42;7.32;;;2.03;;
76477;SDS011;65309;49.790;18.972;2023-11-21T08:03:44;3.78;;;1.98;;
76477;SDS011;65309;49.790;18.972;2023-11-21T08:08:47;2.50;;;1.85;;
76477;SDS011;65309;49.790;18.972;2023-11-21T08:13:50;4.95;;;2.33;;
76477;SDS011;65309;49.790;18.972;2023-11-21T08:18:53;9.00;;;6.07;;
76477;SDS011;65309;49.790;18.972;2023-11-21T08:23:56;3.40;;;2.42;;
76477;SDS011;65309;49.790;18.972;2023-11-21T08:29:00;5.70;;;3.20;;
76477;SDS011;65309;49.790;18.972;2023-11-21T08:34:02;4.15;;;2.40;;
76477;SDS011;65309;49.790;18.972;2023-11-21T08:39:05;4.75;;;2.92;;
76477;SDS011;65309;49.790;18.972;2023-11-21T08:44:08;3.78;;;2.60;;
76477;SDS011;65309;49.790;18.972;2023-11-21T08:49:11;4.10;;;2.22;;
76477;SDS011;65309;49.790;18.972;2023-11-21T08:54:13;4.68;;;2.90;;
76477;SDS011;65309;49.790;18.972;2023-11-21T08:59:17;4.72;;;2.00;;
76477;SDS011;65309;49.790;18.972;2023-11-21T09:04:19;5.82;;;3.05;;
76477;SDS011;65309;49.790;18.972;2023-11-21T09:09:21;3.92;;;2.70;;
76477;SDS011;65309;49.790;18.972;2023-11-21T09:14:25;5.50;;;2.63;;
76477;SDS011;65309;49.790;18.972;2023-11-21T09:19:27;3.47;;;2.55;;
76477;SDS011;65309;49.790;18.972;2023-11-21T09:24:29;4.22;;;3.28;;
76477;SDS011;65309;49.790;18.972;2023-11-21T09:29:33;5.75;;;3.50;;
76477;SDS011;65309;49.790;18.972;2023-11-21T09:34:35;6.15;;;3.75;;
76477;SDS011;65309;49.790;18.972;2023-11-21T09:39:40;6.03;;;3.05;;
76477;SDS011;65309;49.790;18.972;2023-11-21T09:44:45;5.72;;;3.22;;
76477;SDS011;65309;49.790;18.972;2023-11-21T09:49:54;6.13;;;3.10;;
76477;SDS011;65309;49.790;18.972;2023-11-21T09:54:58;7.25;;;3.53;;
76477;SDS011;65309;49.790;18.972;2023-11-21T10:00:04;5.88;;;2.92;;
76477;SDS011;65309;49.790;18.972;2023-11-21T10:05:13;5.03;;;3.03;;
76477;SDS011;65309;49.790;18.972;2023-11-21T10:10:19;3.00;;;2.35;;
76477;SDS011;65309;49.790;18.972;2023-11-21T10:15:24;4.47;;;3.17;;
76477;SDS011;65309;49.790;18.972;2023-11-21T10:20:27;6.30;;;2.95;;
76477;SDS011;65309;49.790;18.972;2023-11-21T10:25:29;4.45;;;2.47;;
76477;SDS011;65309;49.790;18.972;2023-11-21T10:30:33;4.72;;;3.15;;
76477;SDS011;65309;49.790;18.972;2023-11-21T10:35:39;7.68;;;3.60;;
76477;SDS011;65309;49.790;18.972;2023-11-21T10:40:48;5.25;;;3.20;;
76477;SDS011;65309;49.790;18.972;2023-11-21T10:45:52;4.93;;;3.65;;
76477;SDS011;65309;49.790;18.972;2023-11-21T10:51:01;7.55;;;3.65;;
76477;SDS011;65309;49.790;18.972;2023-11-21T10:56:09;8.15;;;4.15;;
76477;SDS011;65309;49.790;18.972;2023-11-21T11:01:20;11.27;;;4.80;;
76477;SDS011;65309;49.790;18.972;2023-11-21T11:06:27;12.23;;;4.57;;
76477;SDS011;65309;49.790;18.972;2023-11-21T11:11:30;11.48;;;4.63;;
76477;SDS011;65309;49.790;18.972;2023-11-21T11:16:34;14.65;;;5.60;;
76477;SDS011;65309;49.790;18.972;2023-11-21T11:21:42;6.80;;;3.85;;
76477;SDS011;65309;49.790;18.972;2023-11-21T11:26:50;7.63;;;4.03;;
76477;SDS011;65309;49.790;18.972;2023-11-21T11:32:02;6.35;;;3.55;;
76477;SDS011;65309;49.790;18.972;2023-11-21T11:37:11;8.32;;;4.45;;
76477;SDS011;65309;49.790;18.972;2023-11-21T11:42:16;4.13;;;3.38;;
76477;SDS011;65309;49.790;18.972;2023-11-21T11:47:21;15.02;;;7.50;;
76477;SDS011;65309;49.790;18.972;2023-11-21T11:57:45;10.95;;;5.30;;
76477;SDS011;65309;49.790;18.972;2023-11-21T12:02:55;12.82;;;5.47;;
76477;SDS011;65309;49.790;18.972;2023-11-21T12:08:02;10.02;;;5.93;;
76477;SDS011;65309;49.790;18.972;2023-11-21T12:13:06;6.97;;;3.67;;
76477;SDS011;65309;49.790;18.972;2023-11-21T12:18:11;10.05;;;5.18;;
76477;SDS011;65309;49.790;18.972;2023-11-21T12:23:14;8.30;;;4.65;;
76477;SDS011;65309;49.790;18.972;2023-11-21T12:28:18;7.55;;;3.65;;
76477;SDS011;65309;49.790;18.972;2023-11-21T12:33:22;8.85;;;4.05;;
76477;SDS011;65309;49.790;18.972;2023-11-21T12:38:24;6.10;;;3.08;;
76477;SDS011;65309;49.790;18.972;2023-11-21T12:43:26;8.63;;;3.65;;
76477;SDS011;65309;49.790;18.972;2023-11-21T12:48:31;5.50;;;3.78;;
76477;SDS011;65309;49.790;18.972;2023-11-21T12:53:33;10.60;;;4.45;;
76477;SDS011;65309;49.790;18.972;2023-11-21T12:58:40;7.22;;;3.50;;
76477;SDS011;65309;49.790;18.972;2023-11-21T13:03:50;11.93;;;4.60;;
76477;SDS011;65309;49.790;18.972;2023-11-21T13:08:53;9.57;;;4.68;;
76477;SDS011;65309;49.790;18.972;2023-11-21T13:13:56;7.15;;;3.95;;
76477;SDS011;65309;49.790;18.972;2023-11-21T13:19:00;7.10;;;4.10;;
76477;SDS011;65309;49.790;18.972;2023-11-21T13:24:02;8.55;;;4.90;;
76477;SDS011;65309;49.790;18.972;2023-11-21T13:29:05;9.13;;;5.13;;
76477;SDS011;65309;49.790;18.972;2023-11-21T13:34:09;9.93;;;5.30;;
76477;SDS011;65309;49.790;18.972;2023-11-21T13:39:11;12.35;;;4.53;;
76477;SDS011;65309;49.790;18.972;2023-11-21T13:44:17;14.93;;;4.50;;
76477;SDS011;65309;49.790;18.972;2023-11-21T13:49:32;5.63;;;4.10;;
76477;SDS011;65309;49.790;18.972;2023-11-21T13:54:42;8.00;;;4.72;;
76477;SDS011;65309;49.790;18.972;2023-11-21T13:59:45;7.47;;;4.93;;
76477;SDS011;65309;49.790;18.972;2023-11-21T14:04:48;10.10;;;4.75;;
76477;SDS011;65309;49.790;18.972;2023-11-21T14:10:52;16.77;;;8.45;;
76477;SDS011;65309;49.790;18.972;2023-11-21T14:15:59;17.48;;;7.30;;
76477;SDS011;65309;49.790;18.972;2023-11-21T14:21:05;15.70;;;7.18;;
76477;SDS011;65309;49.790;18.972;2023-11-21T14:26:07;13.13;;;7.55;;
76477;SDS011;65309;49.790;18.972;2023-11-21T14:31:10;12.75;;;7.65;;
76477;SDS011;65309;49.790;18.972;2023-11-21T14:36:17;24.17;;;11.15;;
76477;SDS011;65309;49.790;18.972;2023-11-21T14:41:19;28.00;;;11.88;;
76477;SDS011;65309;49.790;18.972;2023-11-21T14:46:21;15.02;;;10.70;;
76477;SDS011;65309;49.790;18.972;2023-11-21T14:51:25;16.52;;;8.52;;
76477;SDS011;65309;49.790;18.972;2023-11-21T14:56:29;16.58;;;8.05;;
76477;SDS011;65309;49.790;18.972;2023-11-21T15:01:32;16.52;;;8.48;;
76477;SDS011;65309;49.790;18.972;2023-11-21T15:06:55;11.20;;;6.85;;
76477;SDS011;65309;49.790;18.972;2023-11-21T15:12:00;10.57;;;6.47;;
76477;SDS011;65309;49.790;18.972;2023-11-21T15:17:16;13.30;;;6.25;;
76477;SDS011;65309;49.790;18.972;2023-11-21T15:22:29;8.00;;;5.00;;
76477;SDS011;65309;49.790;18.972;2023-11-21T15:27:31;9.20;;;4.75;;
76477;SDS011;65309;49.790;18.972;2023-11-21T15:32:33;7.30;;;4.07;;
76477;SDS011;65309;49.790;18.972;2023-11-21T15:37:37;3.63;;;2.67;;
76477;SDS011;65309;49.790;18.972;2023-11-21T15:42:39;5.80;;;2.85;;
76477;SDS011;65309;49.790;18.972;2023-11-21T15:47:42;3.83;;;2.13;;
76477;SDS011;65309;49.790;18.972;2023-11-21T15:52:45;7.43;;;4.38;;
76477;SDS011;65309;49.790;18.972;2023-11-21T15:57:58;4.90;;;3.20;;
76477;SDS011;65309;49.790;18.972;2023-11-21T16:03:02;5.95;;;3.67;;
76477;SDS011;65309;49.790;18.972;2023-11-21T16:08:06;5.68;;;3.22;;
76477;SDS011;65309;49.790;18.972;2023-11-21T16:13:08;5.72;;;2.25;;
76477;SDS011;65309;49.790;18.972;2023-11-21T16:18:10;7.03;;;4.00;;
76477;SDS011;65309;49.790;18.972;2023-11-21T16:23:14;7.88;;;4.60;;
76477;SDS011;65309;49.790;18.972;2023-11-21T16:28:18;6.68;;;4.00;;
76477;SDS011;65309;49.790;18.972;2023-11-21T16:33:20;6.80;;;4.20;;
76477;SDS011;65309;49.790;18.972;2023-11-21T16:38:24;6.82;;;3.97;;
76477;SDS011;65309;49.790;18.972;2023-11-21T16:43:26;9.55;;;5.25;;
76477;SDS011;65309;49.790;18.972;2023-11-21T16:48:28;9.32;;;5.47;;
76477;SDS011;65309;49.790;18.972;2023-11-21T16:53:32;7.28;;;4.55;;
76477;SDS011;65309;49.790;18.972;2023-11-21T16:58:34;7.65;;;4.82;;
76477;SDS011;65309;49.790;18.972;2023-11-21T17:03:37;10.23;;;5.57;;
76477;SDS011;65309;49.790;18.972;2023-11-21T17:08:41;15.18;;;7.45;;
76477;SDS011;65309;49.790;18.972;2023-11-21T17:13:45;13.23;;;8.15;;
76477;SDS011;65309;49.790;18.972;2023-11-21T17:18:48;17.67;;;8.02;;
76477;SDS011;65309;49.790;18.972;2023-11-21T17:23:51;12.25;;;5.85;;
76477;SDS011;65309;49.790;18.972;2023-11-21T17:28:54;8.15;;;5.13;;
76477;SDS011;65309;49.790;18.972;2023-11-21T17:33:57;12.68;;;5.90;;
76477;SDS011;65309;49.790;18.972;2023-11-21T17:39:00;11.07;;;6.35;;
76477;SDS011;65309;49.790;18.972;2023-11-21T17:44:03;10.95;;;5.88;;
76477;SDS011;65309;49.790;18.972;2023-11-21T17:49:06;8.23;;;5.43;;
76477;SDS011;65309;49.790;18.972;2023-11-21T17:54:11;8.20;;;5.55;;
76477;SDS011;65309;49.790;18.972;2023-11-21T17:59:13;11.25;;;6.55;;
76477;SDS011;65309;49.790;18.972;2023-11-21T18:04:18;16.25;;;8.15;;
76477;SDS011;65309;49.790;18.972;2023-11-21T18:14:24;18.80;;;10.90;;
76477;SDS011;65309;49.790;18.972;2023-11-21T18:19:28;14.30;;;8.10;;
76477;SDS011;65309;49.790;18.972;2023-11-21T18:24:32;17.10;;;10.95;;
76477;SDS011;65309;49.790;18.972;2023-11-21T18:29:34;15.68;;;10.35;;
76477;SDS011;65309;49.790;18.972;2023-11-21T18:34:40;23.17;;;13.10;;
76477;SDS011;65309;49.790;18.972;2023-11-21T18:39:44;20.70;;;13.23;;
76477;SDS011;65309;49.790;18.972;2023-11-21T18:44:47;16.05;;;10.63;;
76477;SDS011;65309;49.790;18.972;2023-11-21T18:50:00;20.80;;;10.73;;
76477;SDS011;65309;49.790;18.972;2023-11-21T18:55:04;17.45;;;9.52;;
76477;SDS011;65309;49.790;18.972;2023-11-21T19:00:07;18.23;;;10.90;;
76477;SDS011;65309;49.790;18.972;2023-11-21T19:05:14;21.95;;;12.45;;
76477;SDS011;65309;49.790;18.972;2023-11-21T19:10:18;23.80;;;14.23;;
76477;SDS011;65309;49.790;18.972;2023-11-21T19:15:21;26.48;;;12.05;;
76477;SDS011;65309;49.790;18.972;2023-11-21T19:20:23;30.45;;;17.08;;
76477;SDS011;65309;49.790;18.972;2023-11-21T19:25:28;19.60;;;10.15;;
76477;SDS011;65309;49.790;18.972;2023-11-21T19:30:30;25.83;;;13.93;;
76477;SDS011;65309;49.790;18.972;2023-11-21T19:35:34;15.48;;;8.88;;
76477;SDS011;65309;49.790;18.972;2023-11-21T19:40:41;13.85;;;8.02;;
76477;SDS011;65309;49.790;18.972;2023-11-21T19:45:45;52.55;;;13.48;;
76477;SDS011;65309;49.790;18.972;2023-11-21T19:50:47;54.67;;;13.07;;
76477;SDS011;65309;49.790;18.972;2023-11-21T19:55:51;28.63;;;11.05;;
76477;SDS011;65309;49.790;18.972;2023-11-21T20:00:53;12.13;;;6.38;;
76477;SDS011;65309;49.790;18.972;2023-11-21T20:05:56;53.50;;;12.52;;
76477;SDS011;65309;49.790;18.972;2023-11-21T20:10:59;35.97;;;10.50;;
76477;SDS011;65309;49.790;18.972;2023-11-21T20:16:02;15.48;;;8.05;;
76477;SDS011;65309;49.790;18.972;2023-11-21T20:21:04;25.52;;;12.55;;
76477;SDS011;65309;49.790;18.972;2023-11-21T20:26:08;12.88;;;6.72;;
76477;SDS011;65309;49.790;18.972;2023-11-21T20:31:10;101.90;;;19.38;;
76477;SDS011;65309;49.790;18.972;2023-11-21T20:36:12;19.98;;;8.07;;
76477;SDS011;65309;49.790;18.972;2023-11-21T20:41:16;17.08;;;10.02;;
76477;SDS011;65309;49.790;18.972;2023-11-21T20:46:18;20.58;;;11.10;;
76477;SDS011;65309;49.790;18.972;2023-11-21T20:51:20;12.48;;;7.55;;
76477;SDS011;65309;49.790;18.972;2023-11-21T20:56:24;16.35;;;8.18;;
76477;SDS011;65309;49.790;18.972;2023-11-21T21:01:27;7.80;;;5.00;;
76477;SDS011;65309;49.790;18.972;2023-11-21T21:06:30;16.80;;;10.77;;
76477;SDS011;65309;49.790;18.972;2023-11-21T21:11:34;21.10;;;11.70;;
76477;SDS011;65309;49.790;18.972;2023-11-21T21:16:40;13.98;;;9.10;;
76477;SDS011;65309;49.790;18.972;2023-11-21T21:21:43;6.57;;;4.25;;
76477;SDS011;65309;49.790;18.972;2023-11-21T21:26:47;7.05;;;3.65;;
76477;SDS011;65309;49.790;18.972;2023-11-21T21:31:50;6.53;;;4.32;;
76477;SDS011;65309;49.790;18.972;2023-11-21T21:36:53;10.32;;;4.78;;
76477;SDS011;65309;49.790;18.972;2023-11-21T21:41:56;12.13;;;3.83;;
76477;SDS011;65309;49.790;18.972;2023-11-21T21:52:01;4.07;;;3.20;;
76477;SDS011;65309;49.790;18.972;2023-11-21T21:57:05;5.10;;;3.65;;
76477;SDS011;65309;49.790;18.972;2023-11-21T22:02:07;3.50;;;2.83;;
76477;SDS011;65309;49.790;18.972;2023-11-21T22:07:10;11.82;;;6.95;;
76477;SDS011;65309;49.790;18.972;2023-11-21T22:12:13;5.53;;;3.28;;
76477;SDS011;65309;49.790;18.972;2023-11-21T22:22:18;6.25;;;4.85;;
76477;SDS011;65309;49.790;18.972;2023-11-21T22:27:21;9.15;;;5.70;;
76477;SDS011;65309;49.790;18.972;2023-11-21T22:37:26;3.78;;;3.40;;
76477;SDS011;65309;49.790;18.972;2023-11-21T22:42:29;6.60;;;5.32;;
76477;SDS011;65309;49.790;18.972;2023-11-21T22:47:31;7.28;;;4.65;;
76477;SDS011;65309;49.790;18.972;2023-11-21T22:52:34;7.47;;;4.18;;
76477;SDS011;65309;49.790;18.972;2023-11-21T22:57:37;7.38;;;4.55;;
76477;SDS011;65309;49.790;18.972;2023-11-21T23:02:40;23.23;;;9.70;;
76477;SDS011;65309;49.790;18.972;2023-11-21T23:07:42;18.58;;;9.90;;
76477;SDS011;65309;49.790;18.972;2023-11-21T23:12:47;5.38;;;3.33;;
76477;SDS011;65309;49.790;18.972;2023-11-21T23:17:49;5.75;;;3.33;;
76477;SDS011;65309;49.790;18.972;2023-11-21T23:22:51;8.15;;;3.47;;
76477;SDS011;65309;49.790;18.972;2023-11-21T23:27:55;6.10;;;3.30;;
76477;SDS011;65309;49.790;18.972;2023-11-21T23:37:59;7.97;;;4.65;;
76477;SDS011;65309;49.790;18.972;2023-11-21T23:43:03;7.80;;;4.60;;
76477;SDS011;65309;49.790;18.972;2023-11-21T23:53:08;7.07;;;3.80;;
76477;SDS011;65309;49.790;18.972;2023-11-21T23:58:11;5.43;;;3.13;;
